Time;durP1;ratioP1;P1;durP2;ratioP2;P2;SDS_P1;SDS_P2;PMS_P1;PMS_P2;Temp;Humidity;BMP_temperature;BMP_pressure;BME280_temperature;BME280_humidity;BME280_pressure;Samples;Min_cycle;Max_cycle;Signal;HPM_P1;HPM_P2
2023/08/24 00:00:32;;;;;;;17.88;14.63;;;;;;;25.40;54.37;93728.28;5049414;28;20419;-92
2023/08/24 00:02:57;;;;;;;19.52;15.48;;;;;;;25.38;54.76;93730.88;5053425;28;20040;-93
2023/08/24 00:05:23;;;;;;;21.05;16.98;;;;;;;25.36;54.93;93727.16;5057845;28;20557;-91
2023/08/24 00:07:48;;;;;;;19.02;15.38;;;;;;;25.36;54.63;93733.44;5049568;28;20120;-91
2023/08/24 00:10:14;;;;;;;20.85;15.90;;;;;;;25.35;54.89;93731.97;5029752;28;20427;-93
2023/08/24 00:12:39;;;;;;;21.10;15.77;;;;;;;25.33;55.03;93728.28;5034193;28;20045;-91
2023/08/24 00:15:08;;;;;;;18.67;15.68;;;;;;;25.33;54.84;93717.97;5040765;28;20063;-91
2023/08/24 00:17:34;;;;;;;18.98;15.82;;;;;;;25.33;54.93;93729.03;5048771;28;20029;-91
2023/08/24 00:19:59;;;;;;;21.52;15.52;;;;;;;25.35;55.01;93728.47;5062534;28;20080;-92
2023/08/24 00:22:25;;;;;;;18.35;15.00;;;;;;;25.33;54.66;93726.25;5052578;28;20369;-92
2023/08/24 00:24:50;;;;;;;17.45;15.25;;;;;;;25.33;54.99;93723.50;5052744;28;20062;-93
2023/08/24 00:27:15;;;;;;;17.48;14.20;;;;;;;25.32;54.85;93722.03;5048617;28;20032;-90
2023/08/24 00:29:41;;;;;;;19.13;14.90;;;;;;;25.32;54.94;93724.78;5036608;28;20033;-92
2023/08/24 00:32:08;;;;;;;16.95;14.48;;;;;;;25.32;54.77;93718.50;5032362;28;20086;-90
2023/08/24 00:34:33;;;;;;;16.58;14.77;;;;;;;25.31;54.88;93715.00;5024171;28;20403;-90
2023/08/24 00:36:58;;;;;;;19.67;14.25;;;;;;;25.30;54.78;93716.28;5039959;28;20041;-92
2023/08/24 00:39:24;;;;;;;16.23;13.65;;;;;;;25.31;54.63;93708.72;5052113;28;20047;-92
2023/08/24 00:41:49;;;;;;;17.27;13.93;;;;;;;25.31;54.60;93720.53;5036228;28;20044;-91
2023/08/24 00:44:15;;;;;;;15.70;13.40;;;;;;;25.31;54.74;93711.50;5034286;28;20048;-91
2023/08/24 00:46:41;;;;;;;15.98;13.27;;;;;;;25.31;54.68;93722.56;5066186;28;20041;-92
2023/08/24 00:49:07;;;;;;;18.02;13.68;;;;;;;25.32;54.72;93719.25;5049658;28;20047;-91
2023/08/24 00:51:32;;;;;;;15.73;13.65;;;;;;;25.30;54.70;93719.06;5049104;28;20041;-92
2023/08/24 00:53:57;;;;;;;17.27;14.02;;;;;;;25.28;54.66;93716.84;5034875;28;20036;-91
2023/08/24 00:56:26;;;;;;;17.45;13.02;;;;;;;25.28;54.81;93722.38;5065300;28;20407;-92
2023/08/24 00:58:52;;;;;;;17.63;13.82;;;;;;;25.28;54.74;93713.34;5046014;28;20029;-92
2023/08/24 01:01:18;;;;;;;17.67;13.50;;;;;;;25.27;54.78;93720.91;5024649;28;20052;-91
2023/08/24 01:03:43;;;;;;;17.38;13.45;;;;;;;25.27;54.61;93712.59;5032815;28;20037;-92
2023/08/24 01:06:09;;;;;;;16.60;14.32;;;;;;;25.30;54.54;93721.09;5046670;28;20083;-91
2023/08/24 01:08:34;;;;;;;14.10;12.57;;;;;;;25.28;54.58;93718.88;5033221;28;20391;-92
2023/08/24 01:11:15;;;;;;;16.00;13.88;;;;;;;25.27;54.58;93720.16;5058951;28;20040;-92
2023/08/24 01:13:46;;;;;;;16.05;13.10;;;;;;;25.28;54.44;93713.34;5027298;28;20033;-92
2023/08/24 01:16:15;;;;;;;15.73;12.77;;;;;;;25.28;54.56;93716.84;5061933;28;20053;-91
2023/08/24 01:18:42;;;;;;;15.85;13.48;;;;;;;25.27;54.61;93711.84;5031429;28;20060;-92
2023/08/24 01:21:08;;;;;;;14.75;12.32;;;;;;;25.27;54.62;93714.63;5066198;28;20090;-92
2023/08/24 01:23:43;;;;;;;15.57;12.27;;;;;;;25.24;54.48;93713.69;5034893;28;20044;-92
2023/08/24 01:26:16;;;;;;;16.48;13.68;;;;;;;25.26;54.63;93704.84;5051183;28;20066;-91
2023/08/24 01:28:42;;;;;;;15.60;12.40;;;;;;;25.25;54.44;93709.63;5054262;28;20468;-92
2023/08/24 01:31:08;;;;;;;15.95;12.30;;;;;;;25.25;54.31;93703.34;5041484;28;20052;-91
2023/08/24 01:33:33;;;;;;;14.77;11.48;;;;;;;25.26;54.43;93713.88;5034948;28;20123;-93
2023/08/24 01:35:59;;;;;;;14.68;11.30;;;;;;;25.27;54.37;93709.09;5054467;28;20047;-92
2023/08/24 01:38:24;;;;;;;15.18;12.65;;;;;;;25.26;54.16;93704.84;5052428;28;20380;-92
2023/08/24 01:41:05;;;;;;;18.10;13.40;;;;;;;25.24;54.39;93707.41;5050301;28;20036;-91
2023/08/24 01:43:33;;;;;;;15.52;12.02;;;;;;;25.24;54.58;93701.88;5061826;28;20040;-92
2023/08/24 01:46:00;;;;;;;15.18;12.00;;;;;;;25.24;54.66;93696.34;5061626;28;20045;-92
2023/08/24 01:48:25;;;;;;;15.70;12.05;;;;;;;25.23;54.33;93698.38;5053460;28;20036;-91
2023/08/24 01:50:51;;;;;;;14.75;12.10;;;;;;;25.25;54.27;93697.81;5045962;28;20540;-93
2023/08/24 01:53:16;;;;;;;15.13;11.07;;;;;;;25.25;54.47;93704.09;5031471;28;20067;-90
2023/08/24 01:55:41;;;;;;;12.85;11.52;;;;;;;25.23;54.28;93698.38;5044494;28;20594;-91
2023/08/24 01:58:08;;;;;;;14.52;11.73;;;;;;;25.25;54.26;93693.03;5051414;28;20040;-91
2023/08/24 02:00:33;;;;;;;16.58;11.75;;;;;;;25.22;54.43;93691.34;5047648;28;20082;-92
2023/08/24 02:02:59;;;;;;;13.50;11.43;;;;;;;25.24;54.52;93690.81;5040567;28;20037;-92
2023/08/24 02:05:27;;;;;;;13.85;11.63;;;;;;;25.25;54.34;93693.03;5043182;28;20049;-91
2023/08/24 02:07:52;;;;;;;12.70;10.88;;;;;;;25.21;54.35;93670.50;5043470;28;20515;-90
2023/08/24 02:10:18;;;;;;;13.20;10.98;;;;;;;25.20;54.34;93677.31;5038292;28;20068;-91
2023/08/24 02:12:43;;;;;;;14.30;11.57;;;;;;;25.20;54.63;93680.09;5055592;28;20037;-91
2023/08/24 02:15:09;;;;;;;13.77;10.88;;;;;;;25.22;54.19;93682.31;5040322;28;20367;-93
2023/08/24 02:17:34;;;;;;;13.85;11.65;;;;;;;25.20;54.29;93682.13;5047746;28;20044;-91
2023/08/24 02:20:00;;;;;;;11.93;10.35;;;;;;;25.23;54.27;93681.78;5036384;28;20037;-92
2023/08/24 02:22:25;;;;;;;14.05;11.85;;;;;;;25.20;54.16;93671.78;5063732;28;20119;-91
2023/08/24 02:24:51;;;;;;;12.63;10.27;;;;;;;25.21;54.16;93678.06;5037162;28;20045;-93
2023/08/24 02:27:16;;;;;;;15.85;10.90;;;;;;;25.21;54.10;93673.28;5031418;28;20047;-92
2023/08/24 02:29:42;;;;;;;11.60;10.40;;;;;;;25.24;53.80;93680.47;5033738;28;20726;-93
2023/08/24 02:32:07;;;;;;;14.07;10.50;;;;;;;25.19;54.06;93672.34;5034013;28;20045;-92
2023/08/24 02:34:32;;;;;;;13.38;10.88;;;;;;;25.21;53.99;93676.03;5040231;28;20048;-91
2023/08/24 02:36:58;;;;;;;13.90;11.30;;;;;;;25.19;54.23;93667.53;5036933;28;20056;-92
2023/08/24 02:39:23;;;;;;;13.25;10.70;;;;;;;25.19;54.04;93664.03;5030828;28;20950;-92
2023/08/24 02:41:49;;;;;;;11.98;10.77;;;;;;;25.19;54.12;93655.75;5065247;28;20425;-92
2023/08/24 02:44:14;;;;;;;11.95;10.55;;;;;;;25.19;54.14;93664.03;5048805;28;20036;-91
2023/08/24 02:46:40;;;;;;;12.05;10.77;;;;;;;25.17;53.83;93664.59;5050307;28;20040;-92
2023/08/24 02:49:05;;;;;;;11.90;9.80;;;;;;;25.18;54.06;93666.06;5058161;28;20051;-92
2023/08/24 02:51:32;;;;;;;12.23;10.40;;;;;;;25.17;54.24;93656.28;5047156;28;20040;-92
2023/08/24 02:53:57;;;;;;;11.18;10.02;;;;;;;25.19;53.87;93662.00;5044093;28;20129;-92
2023/08/24 02:56:26;;;;;;;13.57;10.73;;;;;;;25.16;54.13;93665.88;5041094;28;20471;-91
2023/08/24 02:58:52;;;;;;;10.80;9.68;;;;;;;25.20;54.11;93671.06;5038061;28;20608;-93
2023/08/24 03:01:18;;;;;;;11.00;9.90;;;;;;;25.18;54.08;93662.56;5043050;28;20046;-91
2023/08/24 03:03:43;;;;;;;12.77;9.70;;;;;;;25.18;53.91;93659.78;5045562;28;20567;-92
2023/08/24 03:06:10;;;;;;;11.85;9.52;;;;;;;25.18;53.68;93668.84;5044994;28;20036;-92
2023/08/24 03:08:35;;;;;;;10.93;9.65;;;;;;;25.18;53.76;93665.34;5034080;28;20082;-91
2023/08/24 03:11:01;;;;;;;13.18;9.85;;;;;;;25.17;53.72;93675.66;5044265;28;20106;-92
2023/08/24 03:13:27;;;;;;;11.98;10.13;;;;;;;25.19;53.82;93672.34;5057147;28;20047;-92
2023/08/24 03:15:53;;;;;;;10.77;9.45;;;;;;;25.18;53.77;93670.88;5055985;28;20040;-92
2023/08/24 03:18:18;;;;;;;12.05;9.57;;;;;;;25.16;53.89;93663.09;5044980;28;20411;-93
2023/08/24 03:20:45;;;;;;;11.27;9.82;;;;;;;25.16;53.84;93668.66;5039163;28;20049;-91
2023/08/24 03:23:10;;;;;;;10.70;9.20;;;;;;;25.17;53.55;93666.63;5033051;28;20391;-91
2023/08/24 03:25:36;;;;;;;11.07;9.25;;;;;;;25.16;53.87;93668.66;5031720;28;20471;-91
2023/08/24 03:28:02;;;;;;;10.80;9.32;;;;;;;25.17;53.76;93672.16;5031972;28;20130;-92
2023/08/24 03:30:27;;;;;;;11.82;9.20;;;;;;;25.21;53.25;93662.22;5034964;28;20074;-92
2023/08/24 03:32:53;;;;;;;12.20;9.48;;;;;;;25.17;53.55;93674.91;5050012;28;20060;-92
2023/08/24 03:35:18;;;;;;;11.90;7.13;;;;;;;25.23;51.25;93675.50;5034782;28;20454;-93
2023/08/24 03:37:44;;;;;;;6.88;5.93;;;;;;;25.09;50.18;93674.16;5038713;28;20511;-89
2023/08/24 03:40:09;;;;;;;12.55;11.25;;;;;;;24.99;50.10;93671.19;5044505;28;20044;-90
2023/08/24 03:42:36;;;;;;;11.35;8.27;;;;;;;24.75;50.46;93674.38;5048337;28;20041;-91
2023/08/24 03:45:01;;;;;;;17.30;9.25;;;;;;;24.70;50.39;93672.50;5037369;28;20087;-92
2023/08/24 03:47:43;;;;;;;12.82;8.63;;;;;;;24.53;50.79;93673.72;5039891;28;20041;-93
2023/08/24 03:50:09;;;;;;;30.15;8.73;;;;;;;24.38;50.58;93673.66;5046885;28;20037;-95
2023/08/24 03:52:34;;;;;;;19.63;8.00;;;;;;;24.31;50.85;93679.84;5050212;28;20052;-92
2023/08/24 03:55:01;;;;;;;22.80;9.23;;;;;;;24.00;51.40;93684.44;5032800;28;20054;-90
2023/08/24 03:57:27;;;;;;;26.88;9.95;;;;;;;23.81;52.17;93678.41;5044249;28;20490;-92
2023/08/24 03:59:53;;;;;;;34.20;9.80;;;;;;;23.62;52.26;93670.28;5046835;28;20759;-91
2023/08/24 04:02:18;;;;;;;28.80;10.90;;;;;;;23.54;52.30;93673.00;5048697;28;20040;-90
2023/08/24 04:04:44;;;;;;;52.13;16.77;;;;;;;23.49;52.07;93682.13;5063800;28;20040;-90
2023/08/24 04:07:09;;;;;;;51.70;16.20;;;;;;;23.44;52.08;93682.25;5038788;28;20044;-91
2023/08/24 04:09:35;;;;;;;87.50;19.27;;;;;;;23.48;51.94;93666.09;5036385;28;20160;-92
2023/08/24 04:12:00;;;;;;;92.63;21.15;;;;;;;23.52;51.87;93675.56;5046065;28;20036;-91
2023/08/24 04:14:26;;;;;;;66.13;18.50;;;;;;;23.52;51.63;93677.59;5044742;28;20041;-91
2023/08/24 04:16:52;;;;;;;117.80;44.33;;;;;;;23.49;51.42;93671.09;5048597;28;20063;-91
2023/08/24 04:19:17;;;;;;;244.45;81.43;;;;;;;23.51;51.45;93678.84;5049843;28;20036;-92
2023/08/24 04:21:43;;;;;;;144.48;40.80;;;;;;;23.51;51.49;93679.56;5036590;28;20539;-90
2023/08/24 04:24:09;;;;;;;90.22;25.80;;;;;;;23.29;51.87;93680.09;5063035;28;20045;-92
2023/08/24 04:26:34;;;;;;;74.65;22.13;;;;;;;23.29;52.12;93679.34;5042611;28;20037;-90
2023/08/24 04:28:59;;;;;;;56.33;17.30;;;;;;;23.30;51.97;93686.34;5047999;28;20535;-91
2023/08/24 04:31:25;;;;;;;38.05;12.45;;;;;;;23.33;52.00;93686.03;5034330;28;20033;-89
2023/08/24 04:33:51;;;;;;;45.70;12.63;;;;;;;23.28;52.17;93684.13;5056172;28;20048;-93
2023/08/24 04:36:16;;;;;;;55.20;12.18;;;;;;;23.19;52.49;93688.06;5034596;28;20044;-94
2023/08/24 04:38:41;;;;;;;66.20;24.10;;;;;;;23.13;52.61;93687.47;5038857;28;20037;-92
2023/08/24 04:41:08;;;;;;;72.18;33.35;;;;;;;23.12;52.85;93688.00;5030594;28;20035;-90
2023/08/24 04:43:34;;;;;;;55.47;26.73;;;;;;;23.08;53.12;93693.09;5067481;28;20282;-90
2023/08/24 04:45:59;;;;;;;39.78;20.80;;;;;;;23.08;53.16;93693.84;5044835;28;20710;-94
2023/08/24 04:48:26;;;;;;;44.38;17.15;;;;;;;23.05;53.17;93689.41;5030358;28;20041;-94
2023/08/24 04:50:53;;;;;;;65.40;22.30;;;;;;;23.08;53.09;93691.09;5039989;28;20032;-92
2023/08/24 04:53:20;;;;;;;41.97;16.63;;;;;;;23.04;53.25;93698.94;5036461;28;20107;-93
2023/08/24 04:55:46;;;;;;;27.17;10.95;;;;;;;23.07;53.44;93691.63;5047138;28;20045;-92
2023/08/24 04:58:12;;;;;;;24.17;12.25;;;;;;;23.10;53.29;93696.81;5057777;28;20043;-92
2023/08/24 05:00:37;;;;;;;30.00;12.18;;;;;;;23.08;53.44;93688.34;5034329;28;20124;-92
2023/08/24 05:03:05;;;;;;;37.05;12.18;;;;;;;23.07;53.53;93691.63;5053980;28;20036;-91
2023/08/24 05:05:31;;;;;;;37.85;13.68;;;;;;;23.06;53.76;93698.41;5062559;28;20052;-92
2023/08/24 05:07:57;;;;;;;24.98;9.77;;;;;;;23.04;53.99;93704.47;5034697;28;20540;-93
2023/08/24 05:10:26;;;;;;;16.58;9.02;;;;;;;23.06;53.84;93696.41;5035954;28;20041;-93
2023/08/24 05:12:52;;;;;;;32.55;13.93;;;;;;;23.04;54.31;93692.69;5053373;28;20078;-94
2023/08/24 05:15:27;;;;;;;21.73;9.43;;;;;;;23.02;54.37;93686.97;5031883;28;20041;-92
2023/08/24 05:17:56;;;;;;;9.82;6.70;;;;;;;22.95;54.97;93696.63;5046977;28;20776;-92
2023/08/24 05:20:23;;;;;;;22.88;9.95;;;;;;;23.04;54.92;93695.44;5048005;28;20044;-90
2023/08/24 05:22:48;;;;;;;13.68;7.43;;;;;;;23.05;55.22;93691.41;5037843;28;20384;-92
2023/08/24 05:25:16;;;;;;;9.77;6.65;;;;;;;23.07;55.04;93697.16;5029151;28;20151;-92
2023/08/24 05:27:41;;;;;;;17.45;9.10;;;;;;;23.08;55.03;93696.59;5030286;28;20048;-92
2023/08/24 05:30:07;;;;;;;26.75;9.77;;;;;;;23.07;55.91;93697.16;5036456;28;20051;-91
2023/08/24 05:32:33;;;;;;;27.23;11.98;;;;;;;23.08;55.76;93693.84;5037404;28;20044;-92
2023/08/24 05:34:59;;;;;;;9.63;6.15;;;;;;;23.05;56.09;93691.41;5031077;28;20061;-92
2023/08/24 05:37:24;;;;;;;10.98;6.03;;;;;;;23.11;55.76;93698.31;5048474;28;20047;-91
2023/08/24 05:39:51;;;;;;;31.15;9.57;;;;;;;23.12;55.99;93697.03;5053253;28;20040;-91
2023/08/24 05:42:16;;;;;;;19.55;9.70;;;;;;;23.08;56.08;93690.34;5035798;28;20029;-93
2023/08/24 05:44:42;;;;;;;17.58;8.73;;;;;;;23.18;55.92;93692.09;5050872;28;20091;-92
2023/08/24 05:47:07;;;;;;;31.80;12.23;;;;;;;23.10;56.25;93691.31;5043823;28;20037;-92
2023/08/24 05:49:34;;;;;;;40.47;12.07;;;;;;;23.22;56.13;93686.28;5048951;28;20128;-92
2023/08/24 05:51:59;;;;;;;27.85;11.65;;;;;;;23.36;55.54;93687.72;5050430;28;20041;-92
2023/08/24 05:54:25;;;;;;;26.70;12.38;;;;;;;23.33;55.62;93691.53;5056576;28;20040;-93
2023/08/24 05:56:51;;;;;;;56.15;20.80;;;;;;;23.41;55.76;93692.34;5050767;28;20036;-92
2023/08/24 05:59:16;;;;;;;55.35;25.27;;;;;;;23.43;55.63;93691.81;5048031;28;20067;-92
2023/08/24 06:01:42;;;;;;;47.15;23.35;;;;;;;23.52;55.56;93683.84;5037255;28;20036;-92
2023/08/24 06:04:08;;;;;;;72.15;25.17;;;;;;;23.61;55.16;93688.13;5053915;28;20041;-91
2023/08/24 06:06:33;;;;;;;55.72;21.55;;;;;;;23.69;54.82;93693.72;5033612;28;20044;-91
2023/08/24 06:08:59;;;;;;;56.45;20.13;;;;;;;23.73;54.61;93694.13;5046246;28;20033;-92
2023/08/24 06:11:24;;;;;;;44.63;19.55;;;;;;;23.79;54.43;93689.97;5038987;28;20032;-91
2023/08/24 06:13:53;;;;;;;48.13;23.65;;;;;;;23.86;54.59;93691.28;5033997;28;20155;-91
2023/08/24 06:16:19;;;;;;;51.78;21.67;;;;;;;23.88;54.21;93688.72;5056972;28;20048;-90
2023/08/24 06:18:44;;;;;;;57.97;21.65;;;;;;;23.95;54.30;93685.31;5031940;28;20139;-92
2023/08/24 06:21:10;;;;;;;44.17;21.17;;;;;;;24.02;53.92;93695.69;5040854;28;20029;-93
2023/08/24 06:23:35;;;;;;;33.70;20.88;;;;;;;24.07;53.97;93688.50;5051866;28;20044;-91
2023/08/24 06:26:01;;;;;;;44.45;22.80;;;;;;;24.08;53.93;93682.44;5058333;28;20052;-92
2023/08/24 06:28:27;;;;;;;47.25;28.33;;;;;;;24.09;53.89;93694.97;5048302;28;20584;-94
2023/08/24 06:30:55;;;;;;;67.57;35.28;;;;;;;24.12;53.94;93685.59;5051486;28;20055;-93
2023/08/24 06:33:21;;;;;;;62.35;33.17;;;;;;;24.15;53.73;93695.56;5052695;28;20013;-92
2023/08/24 06:35:49;;;;;;;69.57;40.05;;;;;;;24.19;53.90;93692.47;5062933;28;20032;-92
2023/08/24 06:38:18;;;;;;;57.03;26.55;;;;;;;24.19;53.82;93682.16;5025145;28;20068;-93
2023/08/24 06:40:44;;;;;;;56.70;28.13;;;;;;;24.21;53.86;93682.38;5008943;28;20049;-92
2023/08/24 06:43:09;;;;;;;76.35;32.15;;;;;;;24.22;53.78;93683.09;4981735;28;20044;-92
2023/08/24 06:45:35;;;;;;;65.78;29.50;;;;;;;24.27;53.68;93688.50;5003729;28;20042;-92
2023/08/24 06:48:00;;;;;;;69.32;35.83;;;;;;;24.32;53.57;93691.66;4992152;28;20091;-93
2023/08/24 06:50:27;;;;;;;64.15;27.08;;;;;;;24.31;53.51;93677.09;4977643;28;20042;-94
2023/08/24 06:52:53;;;;;;;49.97;24.52;;;;;;;24.31;53.43;93684.66;5012745;28;20508;-91
2023/08/24 06:55:20;;;;;;;64.85;29.60;;;;;;;24.39;53.40;93677.16;5009793;28;20133;-92
2023/08/24 06:57:48;;;;;;;85.40;32.95;;;;;;;24.39;53.26;93679.91;5013047;28;20055;-93
2023/08/24 07:00:14;;;;;;;118.75;43.58;;;;;;;24.40;53.15;93682.13;4982620;28;20148;-92
2023/08/24 07:02:40;;;;;;;109.35;47.38;;;;;;;24.44;53.40;93684.56;4977012;28;20052;-92
2023/08/24 07:05:08;;;;;;;134.68;51.08;;;;;;;24.46;53.20;93677.19;4977171;28;20049;-93
2023/08/24 07:07:34;;;;;;;115.88;52.95;;;;;;;24.48;53.14;93679.41;4976378;28;20042;-93
2023/08/24 07:10:00;;;;;;;144.93;58.25;;;;;;;24.44;53.38;93685.28;5004150;28;20515;-92
2023/08/24 07:12:25;;;;;;;157.90;63.88;;;;;;;24.55;53.00;93678.69;5049810;28;20047;-92
2023/08/24 07:14:51;;;;;;;125.32;59.45;;;;;;;24.51;53.22;93672.78;5014303;28;20130;-92
2023/08/24 07:17:16;;;;;;;131.70;56.05;;;;;;;24.51;53.51;93679.06;5028896;28;20036;-90
2023/08/24 07:19:42;;;;;;;116.25;50.67;;;;;;;24.52;53.25;93677.78;5033147;28;20041;-92
2023/08/24 07:22:08;;;;;;;95.43;45.28;;;;;;;24.55;53.18;93670.41;5059051;28;20037;-92
2023/08/24 07:24:35;;;;;;;149.23;52.55;;;;;;;24.57;53.17;93681.66;5016217;28;20048;-94
2023/08/24 07:27:04;;;;;;;136.63;52.85;;;;;;;24.56;53.36;93680.19;5033585;28;20040;-93
2023/08/24 07:29:29;;;;;;;120.70;52.08;;;;;;;24.61;53.29;93682.06;5037549;28;20086;-92
2023/08/24 07:31:56;;;;;;;221.15;107.47;;;;;;;24.62;53.13;93682.81;5040896;28;20469;-92
2023/08/24 07:34:24;;;;;;;176.70;81.60;;;;;;;24.63;53.21;93676.00;5028332;28;20033;-91
2023/08/24 07:36:50;;;;;;;190.60;78.47;;;;;;;24.67;53.21;93679.88;5040957;28;20131;-92
2023/08/24 07:39:15;;;;;;;177.85;77.03;;;;;;;24.73;53.14;93671.41;5055244;28;20384;-92
2023/08/24 07:41:41;;;;;;;165.48;73.80;;;;;;;24.71;53.26;93677.50;5049733;28;20057;-91
2023/08/24 07:44:07;;;;;;;152.25;68.43;;;;;;;24.79;53.10;93677.53;5037256;28;20044;-90
2023/08/24 07:46:32;;;;;;;138.50;62.67;;;;;;;24.74;53.19;93670.88;5054763;28;20044;-93
2023/08/24 07:48:58;;;;;;;138.30;61.90;;;;;;;24.78;52.98;93681.56;5046303;28;20050;-92
2023/08/24 07:51:24;;;;;;;157.15;70.18;;;;;;;24.78;53.04;93676.78;5050918;28;20554;-92
2023/08/24 07:53:56;;;;;;;147.82;71.43;;;;;;;24.80;53.24;93676.25;5079650;28;20055;-93
2023/08/24 07:56:22;;;;;;;149.07;67.60;;;;;;;24.87;53.70;93683.84;5043208;28;20045;-91
2023/08/24 07:58:49;;;;;;;162.98;77.60;;;;;;;24.93;53.80;93678.88;5037553;28;20029;-94
2023/08/24 08:01:14;;;;;;;125.38;67.43;;;;;;;24.95;52.76;93676.31;5052334;28;20036;-91
2023/08/24 08:03:40;;;;;;;127.95;64.43;;;;;;;25.00;52.76;93678.19;5060227;28;20045;-90
2023/08/24 08:06:05;;;;;;;143.15;68.93;;;;;;;24.97;53.06;93679.28;5051334;28;20046;-91
2023/08/24 08:08:30;;;;;;;125.45;69.00;;;;;;;24.96;52.78;93683.34;5036165;28;20491;-91
2023/08/24 08:11:00;;;;;;;138.45;70.78;;;;;;;24.92;53.15;93680.16;5053505;28;20097;-92
2023/08/24 08:13:26;;;;;;;152.48;70.35;;;;;;;24.96;53.39;93680.56;5048200;28;20044;-91
2023/08/24 08:15:51;;;;;;;139.93;72.10;;;;;;;24.98;53.19;93682.78;5056924;28;20056;-90
2023/08/24 08:18:17;;;;;;;181.75;76.13;;;;;;;25.00;53.04;93683.72;5057825;28;20063;-92
2023/08/24 08:20:42;;;;;;;169.63;67.82;;;;;;;25.00;53.45;93689.25;5051296;28;20044;-90
2023/08/24 08:23:08;;;;;;;143.35;59.05;;;;;;;25.08;53.11;93694.81;5045624;28;20036;-90
2023/08/24 08:25:33;;;;;;;171.90;68.35;;;;;;;25.06;53.37;93694.63;5058627;28;20041;-90
2023/08/24 08:27:59;;;;;;;104.18;56.72;;;;;;;25.11;52.59;93697.25;5051206;28;20394;-91
2023/08/24 08:30:27;;;;;;;73.28;43.53;;;;;;;25.19;51.94;93688.94;5036724;28;20122;-91
2023/08/24 08:32:54;;;;;;;83.82;41.50;;;;;;;25.25;52.14;93684.72;5033596;28;20547;-91
2023/08/24 08:35:21;;;;;;;81.90;44.67;;;;;;;25.28;52.17;93688.44;5039715;28;20110;-91
2023/08/24 08:37:49;;;;;;;93.18;43.50;;;;;;;25.30;52.19;93688.63;5065978;28;20411;-89
2023/08/24 08:40:14;;;;;;;93.45;43.40;;;;;;;25.35;52.18;93687.69;5046936;28;20048;-90
2023/08/24 08:42:40;;;;;;;93.35;49.78;;;;;;;25.35;52.14;93682.16;5035471;28;20605;-90
2023/08/24 08:45:09;;;;;;;168.25;113.38;;;;;;;25.35;51.89;93682.16;5044332;28;20082;-91
2023/08/24 08:47:34;;;;;;;87.28;44.13;;;;;;;25.41;51.94;93685.50;5066605;28;20131;-91
2023/08/24 08:50:02;;;;;;;79.78;37.75;;;;;;;25.41;52.07;93687.53;5033794;28;20597;-89
2023/08/24 08:52:27;;;;;;;106.72;44.15;;;;;;;25.41;51.83;93690.28;5039448;28;20132;-88
2023/08/24 08:54:53;;;;;;;111.20;43.92;;;;;;;25.41;52.24;93679.22;5048925;28;20427;-91
2023/08/24 08:57:21;;;;;;;152.40;60.15;;;;;;;25.40;52.36;93680.50;5053992;28;20049;-91
2023/08/24 08:59:49;;;;;;;83.18;37.00;;;;;;;25.45;51.85;93682.38;5045159;28;20044;-91
2023/08/24 09:02:16;;;;;;;79.63;36.88;;;;;;;25.47;51.96;93693.63;5033865;28;20373;-90
2023/08/24 09:04:41;;;;;;;118.50;49.83;;;;;;;25.48;51.88;93689.56;5043589;28;20036;-91
2023/08/24 09:07:10;;;;;;;334.08;260.58;;;;;;;25.42;52.33;93686.97;5049042;28;20078;-90
2023/08/24 09:09:36;;;;;;;143.43;64.85;;;;;;;25.45;52.31;93679.59;5063495;28;20455;-90
2023/08/24 09:12:03;;;;;;;113.28;53.60;;;;;;;25.40;52.11;93686.03;5052004;28;20537;-90
2023/08/24 09:14:29;;;;;;;142.05;55.83;;;;;;;25.43;51.95;93687.72;5062975;28;20045;-90
2023/08/24 09:16:54;;;;;;;120.57;51.90;;;;;;;25.41;52.11;93682.00;5042523;28;20036;-90
2023/08/24 09:19:20;;;;;;;103.20;48.35;;;;;;;25.35;51.94;93673.84;5066273;28;20047;-90
2023/08/24 09:21:46;;;;;;;85.53;37.78;;;;;;;25.40;51.94;93681.25;5051488;28;20123;-91
2023/08/24 09:24:12;;;;;;;101.40;42.38;;;;;;;25.40;51.99;93675.72;5050918;28;20036;-90
2023/08/24 09:26:42;;;;;;;97.43;45.75;;;;;;;25.41;51.99;93668.88;5065148;28;20048;-91
2023/08/24 09:29:13;;;;;;;93.78;41.08;;;;;;;25.44;52.07;93669.81;5052296;28;20076;-91
2023/08/24 09:31:38;;;;;;;96.57;41.47;;;;;;;25.40;51.85;93666.66;5065906;28;20139;-91
2023/08/24 09:34:04;;;;;;;106.60;46.47;;;;;;;25.40;52.29;93650.81;5046513;28;20039;-92
2023/08/24 09:36:39;;;;;;;119.57;49.42;;;;;;;25.39;52.06;93662.41;5056522;28;20043;-93
2023/08/24 09:39:05;;;;;;;98.30;48.35;;;;;;;25.41;52.11;93657.06;5043177;28;20079;-91
2023/08/24 09:41:52;;;;;;;145.85;70.00;;;;;;;25.38;52.07;93658.19;5055776;28;20068;-91
2023/08/24 09:44:17;;;;;;;130.50;73.28;;;;;;;25.38;52.43;93647.84;5035122;28;20040;-92
2023/08/24 09:46:43;;;;;;;143.48;81.18;;;;;;;25.39;52.42;93646.56;5062952;28;20040;-91
2023/08/24 09:49:09;;;;;;;144.45;76.80;;;;;;;25.38;52.32;93639.53;5066133;28;20064;-92
2023/08/24 09:51:35;;;;;;;132.00;66.28;;;;;;;25.44;52.15;93637.34;5047816;28;20052;-94
2023/08/24 09:54:08;;;;;;;252.50;88.60;;;;;;;25.42;52.18;93637.16;5058686;28;20040;-93
2023/08/24 09:56:40;;;;;;;185.57;79.55;;;;;;;25.48;52.01;93636.97;5050986;28;20039;-92
2023/08/24 09:59:12;;;;;;;224.27;94.78;;;;;;;25.45;52.21;93636.06;5052600;28;20033;-92
2023/08/24 10:01:41;;;;;;;177.30;88.75;;;;;;;25.50;52.18;93621.31;5049015;28;20044;-93
2023/08/24 10:04:07;;;;;;;215.20;103.45;;;;;;;25.51;52.15;93622.78;5048762;28;20508;-93
2023/08/24 10:06:32;;;;;;;229.38;107.57;;;;;;;25.51;52.33;93619.28;5035810;28;20040;-94
2023/08/24 10:09:01;;;;;;;200.18;102.93;;;;;;;25.49;52.40;93619.09;5032102;28;20459;-93
2023/08/24 10:11:28;;;;;;;197.63;98.50;;;;;;;25.48;52.09;93623.13;5035290;28;20051;-94
2023/08/24 10:14:07;;;;;;;194.68;94.68;;;;;;;25.47;52.26;93621.66;5051434;28;20668;-93
2023/08/24 10:16:33;;;;;;;177.98;92.82;;;;;;;25.49;52.32;93627.38;5051353;28;20422;-93
2023/08/24 10:18:59;;;;;;;178.90;94.65;;;;;;;25.48;52.43;93617.59;5031528;28;20114;-93
2023/08/24 10:21:25;;;;;;;191.65;107.57;;;;;;;25.49;52.14;93624.63;5036639;28;20036;-94
2023/08/24 10:23:51;;;;;;;176.38;109.15;;;;;;;25.50;52.44;93617.78;5018819;28;20053;-93
2023/08/24 10:26:17;;;;;;;195.30;113.25;;;;;;;25.49;52.14;93619.09;5037256;28;20036;-94
2023/08/24 10:28:44;;;;;;;179.80;109.60;;;;;;;25.46;52.92;93618.16;5045728;28;20040;-94
2023/08/24 10:31:10;;;;;;;171.40;99.80;;;;;;;25.48;52.56;93612.06;5034389;28;20040;-95
2023/08/24 10:33:36;;;;;;;152.80;91.35;;;;;;;25.51;52.45;93619.28;5036791;28;20036;-95
2023/08/24 10:36:04;;;;;;;168.85;100.35;;;;;;;25.46;52.68;93611.88;5032479;28;20036;-94
2023/08/24 10:38:30;;;;;;;156.35;91.07;;;;;;;25.49;52.79;93602.47;5056636;28;20136;-95
2023/08/24 10:41:06;;;;;;;125.45;74.53;;;;;;;25.47;52.90;93602.28;5039842;28;20044;-95
2023/08/24 10:43:40;;;;;;;135.30;75.95;;;;;;;25.48;52.62;93609.28;5023018;28;20044;-94
2023/08/24 10:46:12;;;;;;;110.43;69.38;;;;;;;25.53;52.83;93611.91;5022978;28;20045;-94
2023/08/24 10:48:41;;;;;;;109.45;65.95;;;;;;;25.52;52.67;93609.69;5050616;28;20742;-93
2023/08/24 10:51:23;;;;;;;153.10;90.35;;;;;;;25.52;53.04;93606.91;5064442;28;20051;-94
2023/08/24 10:53:56;;;;;;;108.30;68.72;;;;;;;25.54;52.79;93599.53;5059662;28;20040;-94
2023/08/24 10:56:29;;;;;;;101.43;62.65;;;;;;;25.56;52.91;93605.22;5039943;28;20685;-95
2023/08/24 10:59:14;;;;;;;110.00;69.03;;;;;;;25.53;53.01;93606.34;5031755;28;20056;-92
2023/08/24 11:01:41;;;;;;;112.57;67.93;;;;;;;25.53;52.80;93602.84;5064286;28;20040;-93
2023/08/24 11:04:07;;;;;;;112.65;63.58;;;;;;;25.56;52.71;93601.72;5030963;28;20048;-94
2023/08/24 11:06:33;;;;;;;113.20;59.08;;;;;;;25.55;52.82;93597.47;5051179;28;20048;-93
2023/08/24 11:09:13;;;;;;;112.72;63.90;;;;;;;25.52;52.83;93599.34;5047049;28;20040;-93
2023/08/24 11:11:40;;;;;;;127.50;66.82;;;;;;;25.58;52.84;93602.66;5051148;28;20040;-94